Eastern Sierra Regional Airport
KBIH : now visible

Airfield :











YOU CAN JOIN US ON...

 
LOGIN :

Register | Disclaimer

   EN    FR    IT 

 









Legend :    VFR   Marginal VFR   IFR   Intensive IFR   Very Intensive IFR
Visi :
Ceiling :
>= 8 km
>= 3000ft
5 to 8 km
1000 to 3000 ft
1500m to 5 km
500 to 1000 ft
800 to 1500m
200 to 500 ft
< 800m
< 200 ft
Symbols :   Thunderstorms  Fog  Heavy snow  Heavy precipitations  Wind > 20 kt






- Airport Elevation : 4124 ft


KBIH - Eastern Sierra Regional

CURRENT METAR :
  • 080656Z AUTO 05004KT 10SM FEW036 03/02 A2997 RMK AO2 RAB02E11 SLP138 P0000 T00280017

EXPIRED METARs :
  • 080556Z AUTO 00000KT 10SM FEW065 SCT080 BKN100 04/03 A2997 RMK AO2 SLP140 60001 T00390028 10094 20039 56005
  • 080456Z AUTO 01007KT 10SM FEW070 SCT080 06/03 A2998 RMK AO2 SLP142 T00560033

TAF KBIH
Valid from the 08 at 06:00 until the 09 at 06:00 UTC


080540Z 0806/0906 35007KT P6SM VCSH SCT060 BKN120
FM081300 35009KT 4SM -SHRASN BKN030
FM081700 36007KT P6SM FEW060 BKN100
FM090200 35010KT P6SM SCT040 BKN060



MET'MAP, your aeronautical weather chart ! - Copyright ORBIFLY December 2007 - Disclaimer

ORBIFLY MET'MAP TEAM :

Programming & Development : Alexandra Zaïnal
Concept & original design : Baudouin d'Aumeries
Assistance for programming : Marc-Olivier Méhu
Technical & hardware support : Manuel Goepfert

Contact : metmap@orbifly.com




SOURCES & CREDITS :

   NOAA       Earth
Advisory